createdAt,value
2022-07-28T00:00:16.538Z,96850.50
2022-07-28T00:02:46.597Z,96850.66
2022-07-28T00:05:14.021Z,96845.28
2022-07-28T00:07:41.611Z,96855.88
2022-07-28T00:10:09.594Z,96851.53
2022-07-28T00:12:38.102Z,96864.34
2022-07-28T00:15:06.236Z,96865.25
2022-07-28T00:17:33.361Z,96865.91
2022-07-28T00:20:00.555Z,96868.78
2022-07-28T00:22:29.677Z,96866.81
2022-07-28T00:24:56.969Z,96864.59
2022-07-28T00:27:25.128Z,96857.88
2022-07-28T00:29:52.099Z,96856.81
2022-07-28T00:32:21.058Z,96857.88
2022-07-28T00:34:48.449Z,96857.63
2022-07-28T00:37:15.546Z,96859.41
2022-07-28T00:39:44.062Z,96859.31
2022-07-28T00:42:12.569Z,96861.38
2022-07-28T00:44:42.903Z,96868.38
2022-07-28T00:47:13.187Z,96870.03
2022-07-28T00:49:45.753Z,96868.44
2022-07-28T00:52:13.953Z,96862.25
2022-07-28T00:54:41.167Z,96866.38
2022-07-28T00:57:08.267Z,96870.13
2022-07-28T00:59:35.442Z,96878.19
2022-07-28T01:02:03.607Z,96871.88
2022-07-28T01:04:31.323Z,96868.53
2022-07-28T01:07:16.770Z,96861.59
2022-07-28T01:10:14.790Z,96867.63
2022-07-28T01:13:03.197Z,96863.72
2022-07-28T01:15:34.107Z,96864.53
2022-07-28T01:18:17.811Z,96861.63
2022-07-28T01:20:49.580Z,96861.63
2022-07-28T01:23:31.761Z,96857.13
2022-07-28T01:26:21.399Z,96855.25
2022-07-28T01:29:16.526Z,96855.88
2022-07-28T01:31:48.398Z,96861.91
2022-07-28T01:34:20.418Z,96860.91
2022-07-28T01:36:53.639Z,96853.09
2022-07-28T01:39:25.375Z,96862.59
2022-07-28T01:41:55.264Z,96860.56
2022-07-28T01:44:26.972Z,96865.91
2022-07-28T01:46:56.345Z,96860.56
2022-07-28T01:49:26.857Z,96864.47
2022-07-28T01:51:56.381Z,96866.38
2022-07-28T01:54:27.938Z,96864.31
2022-07-28T01:56:57.474Z,96872.13
2022-07-28T01:59:26.474Z,96873.44
2022-07-28T02:01:54.789Z,96877.38
2022-07-28T02:04:23.957Z,96868.13
2022-07-28T02:06:53.389Z,96878.44
2022-07-28T02:09:23.263Z,96879.66
2022-07-28T02:11:54.288Z,96882.31
2022-07-28T02:14:25.994Z,96888.47
2022-07-28T02:17:03.963Z,96890.16
2022-07-28T02:19:32.742Z,96890.81
2022-07-28T02:22:03.550Z,96900.88
2022-07-28T02:24:32.826Z,96899.84
2022-07-28T02:27:06.382Z,96915.72
2022-07-28T02:29:52.185Z,96925.38
2022-07-28T02:32:28.754Z,96917.56
2022-07-28T02:35:06.019Z,96922.09
2022-07-28T02:37:40.480Z,96927.03
2022-07-28T02:40:13.947Z,96928.06
2022-07-28T02:42:43.351Z,96938.56
2022-07-28T02:45:13.400Z,96939.81
2022-07-28T02:47:46.567Z,96944.72
2022-07-28T02:50:17.106Z,96938.78
2022-07-28T02:52:49.795Z,96934.28
2022-07-28T02:55:17.852Z,96947.22
2022-07-28T02:57:50.887Z,96949.66
2022-07-28T03:00:21.776Z,96957.91
2022-07-28T03:02:49.459Z,96956.88
2022-07-28T03:05:16.953Z,96956.66
2022-07-28T03:07:50.766Z,96967.78
2022-07-28T03:10:33.458Z,96960.38
2022-07-28T03:13:07.062Z,96961.19
2022-07-28T03:15:35.839Z,96962.81
2022-07-28T03:18:04.780Z,96967.34
2022-07-28T03:20:35.020Z,96966.09
2022-07-28T03:23:02.642Z,96964.25
2022-07-28T03:25:39.601Z,96978.47
2022-07-28T03:28:09.591Z,96972.69
2022-07-28T03:30:43.269Z,96968.19
2022-07-28T03:33:11.715Z,96973.91
2022-07-28T03:35:45.084Z,96972.28
2022-07-28T03:38:17.766Z,96975.16
2022-07-28T03:40:46.610Z,96980.72
2022-07-28T03:43:17.058Z,96979.47
2022-07-28T03:45:46.498Z,96980.50
2022-07-28T03:48:15.387Z,96975.38
2022-07-28T03:50:43.226Z,96981.75
2022-07-28T03:53:19.214Z,96980.91
2022-07-28T03:55:51.151Z,96980.50
2022-07-28T03:58:29.183Z,96979.28
2022-07-28T04:00:57.671Z,96981.72
2022-07-28T04:03:42.529Z,96987.88
2022-07-28T04:06:11.270Z,96985.84
2022-07-28T04:08:38.306Z,96986.66
2022-07-28T04:11:05.451Z,96994.69
2022-07-28T04:13:32.692Z,96997.16
2022-07-28T04:16:01.726Z,96998.19
2022-07-28T04:18:29.343Z,96999.00
2022-07-28T04:20:56.236Z,96998.19
2022-07-28T04:23:24.283Z,97003.31
2022-07-28T04:25:51.935Z,97001.47
2022-07-28T04:28:21.638Z,96986.63
2022-07-28T04:30:48.854Z,96994.97
2022-07-28T04:33:16.392Z,97001.50
2022-07-28T04:35:43.549Z,96992.28
2022-07-28T04:38:12.389Z,96997.66
2022-07-28T04:40:39.818Z,96994.59
2022-07-28T04:43:07.021Z,96998.03
2022-07-28T04:45:34.690Z,97002.69
2022-07-28T04:48:01.969Z,96996.25
2022-07-28T04:50:29.076Z,96994.50
2022-07-28T04:52:56.178Z,97004.78
2022-07-28T04:55:23.712Z,96997.19
2022-07-28T04:57:51.674Z,96999.56
2022-07-28T05:00:22.736Z,97006.53
2022-07-28T05:02:51.736Z,97009.34
2022-07-28T05:05:19.235Z,97015.53
2022-07-28T05:07:46.500Z,97008.75
2022-07-28T05:10:13.999Z,97012.69
2022-07-28T05:12:42.669Z,97006.13
2022-07-28T05:15:12.546Z,97010.66
2022-07-28T05:17:39.879Z,97016.72
2022-07-28T05:20:08.822Z,97009.47
2022-07-28T05:22:43.990Z,97004.72
2022-07-28T05:25:20.325Z,97007.47
2022-07-28T05:27:48.241Z,97000.63
2022-07-28T05:30:16.075Z,97000.13
2022-07-28T05:32:43.635Z,97005.97
2022-07-28T05:35:10.843Z,97003.09
2022-07-28T05:37:39.067Z,97005.53
2022-07-28T05:40:14.275Z,97008.28
2022-07-28T05:42:43.322Z,97006.63
2022-07-28T05:45:16.322Z,97013.13
2022-07-28T05:47:49.643Z,97018.03
2022-07-28T05:50:18.588Z,97018.72
2022-07-28T05:52:47.141Z,97023.22
2022-07-28T05:55:14.782Z,97019.13
2022-07-28T05:57:41.884Z,97015.03
2022-07-28T06:00:11.826Z,97019.03
2022-07-28T06:02:40.262Z,97019.16
2022-07-28T06:05:08.283Z,97016.03
2022-07-28T06:07:43.640Z,97014.97
2022-07-28T06:10:16.826Z,97020.19
2022-07-28T06:12:50.031Z,97022.09
2022-07-28T06:15:19.752Z,97023.19
2022-07-28T06:17:46.764Z,97025.34
2022-07-28T06:20:14.782Z,97027.53
2022-07-28T06:22:47.423Z,97024.81
2022-07-28T06:25:19.123Z,97026.72
2022-07-28T06:27:47.219Z,97027.25
2022-07-28T06:30:15.219Z,97024.75
2022-07-28T06:32:42.696Z,97026.34
2022-07-28T06:35:11.212Z,97028.47
2022-07-28T06:37:38.342Z,97026.16
2022-07-28T06:40:05.450Z,97026.13
2022-07-28T06:42:32.582Z,97026.91
2022-07-28T06:45:00.062Z,97033.66
2022-07-28T06:47:27.715Z,97043.50
2022-07-28T06:49:54.849Z,97041.72
2022-07-28T06:52:22.396Z,97036.16
2022-07-28T06:54:53.522Z,97032.28
2022-07-28T06:57:28.187Z,97039.41
2022-07-28T07:00:05.749Z,97033.31
2022-07-28T07:02:34.256Z,97039.56
2022-07-28T07:05:01.347Z,97040.19
2022-07-28T07:07:28.420Z,97044.63
2022-07-28T07:09:55.667Z,97039.38
2022-07-28T07:12:22.818Z,97034.94
2022-07-28T07:14:49.963Z,97035.66
2022-07-28T07:17:17.444Z,97034.69
2022-07-28T07:19:44.721Z,97034.88
2022-07-28T07:22:15.130Z,97044.88
2022-07-28T07:24:42.548Z,97036.66
2022-07-28T07:27:09.742Z,97026.09
2022-07-28T07:29:36.752Z,97029.47
2022-07-28T07:32:06.926Z,97038.84
2022-07-28T07:34:39.606Z,97032.13
2022-07-28T07:37:10.585Z,97032.94
2022-07-28T07:39:38.174Z,97032.19
2022-07-28T07:42:05.396Z,97025.78
2022-07-28T07:44:32.780Z,97029.91
2022-07-28T07:47:00.227Z,97030.13
2022-07-28T07:49:27.469Z,97028.47
2022-07-28T07:52:12.867Z,97040.31
2022-07-28T07:54:40.023Z,97031.63
2022-07-28T07:57:07.457Z,97033.97
2022-07-28T07:59:34.681Z,97041.34
2022-07-28T08:02:02.266Z,97046.59
2022-07-28T08:04:29.490Z,97032.22
2022-07-28T08:06:57.081Z,97047.69
2022-07-28T08:09:24.404Z,97045.84
2022-07-28T08:11:51.550Z,97038.38
2022-07-28T08:14:18.726Z,97046.47
2022-07-28T08:16:45.907Z,97041.69
2022-07-28T08:19:12.753Z,97035.44
2022-07-28T08:21:39.852Z,97032.72
2022-07-28T08:24:07.644Z,97034.25
2022-07-28T08:26:34.733Z,97040.31
2022-07-28T08:29:01.830Z,97038.91
2022-07-28T08:31:29.030Z,97035.63
2022-07-28T08:33:58.820Z,97036.88
2022-07-28T08:36:25.939Z,97041.66
2022-07-28T08:38:52.968Z,97049.16
2022-07-28T08:41:33.811Z,97037.91
2022-07-28T08:44:04.305Z,97038.50
2022-07-28T08:46:38.907Z,97035.25
2022-07-28T08:49:09.409Z,97030.75
2022-07-28T08:51:38.186Z,97035.44
2022-07-28T08:54:06.466Z,97031.63
2022-07-28T08:56:33.697Z,97036.63
2022-07-28T08:59:02.202Z,97039.88
2022-07-28T09:01:38.694Z,97032.97
2022-07-28T09:04:11.765Z,97036.25
2022-07-28T09:06:43.019Z,97031.28
2022-07-28T09:09:10.918Z,97047.97
2022-07-28T09:11:39.088Z,97043.31
2022-07-28T09:14:07.106Z,97044.09
2022-07-28T09:16:34.705Z,97035.09
2022-07-28T09:19:01.739Z,97040.75
2022-07-28T09:21:29.320Z,97042.31
2022-07-28T09:23:56.489Z,97047.97
2022-07-28T09:26:23.525Z,97046.16
2022-07-28T09:28:57.187Z,97043.53
2022-07-28T09:31:26.455Z,97043.50
2022-07-28T09:34:06.067Z,97037.75
2022-07-28T09:36:42.271Z,97039.41
2022-07-28T09:39:09.627Z,97036.00
2022-07-28T09:41:55.440Z,97042.91
2022-07-28T09:44:24.581Z,97041.03
2022-07-28T09:46:51.956Z,97039.38
2022-07-28T09:49:21.936Z,97035.13
2022-07-28T09:52:04.040Z,97035.09
2022-07-28T09:54:31.114Z,97042.47
2022-07-28T09:56:58.416Z,97044.03
2022-07-28T09:59:26.392Z,97048.94
2022-07-28T10:02:02.662Z,97035.81
2022-07-28T10:04:36.208Z,97042.84
2022-07-28T10:07:08.039Z,97040.50
2022-07-28T10:09:35.096Z,97039.22
2022-07-28T10:12:22.172Z,97034.22
2022-07-28T10:14:52.024Z,97031.88
2022-07-28T10:17:35.553Z,97038.09
2022-07-28T10:20:06.110Z,97031.00
2022-07-28T10:22:39.482Z,97026.72
2022-07-28T10:25:12.965Z,97026.34
2022-07-28T10:27:45.377Z,97024.69
2022-07-28T10:30:13.914Z,97026.94
2022-07-28T10:32:45.938Z,97016.97
2022-07-28T10:35:15.611Z,97022.41
2022-07-28T10:38:16.531Z,97027.56
2022-07-28T10:40:47.164Z,97022.66
2022-07-28T10:43:15.525Z,97024.22
2022-07-28T10:48:34.404Z,97013.44
2022-07-28T10:51:05.998Z,97023.53
2022-07-28T10:53:41.004Z,97005.63
2022-07-28T10:56:26.004Z,97011.13
2022-07-28T10:59:29.798Z,97009.19
2022-07-28T11:01:57.052Z,97020.41
2022-07-28T11:04:48.973Z,97015.31
2022-07-28T11:07:17.547Z,97003.19
2022-07-28T11:09:47.910Z,97010.91
2022-07-28T11:12:16.077Z,97006.22
2022-07-28T11:14:45.172Z,97010.06
2022-07-28T11:17:16.613Z,97005.59
2022-07-28T11:22:45.742Z,97003.50
2022-07-28T11:25:18.818Z,97002.44
2022-07-28T11:27:52.194Z,97009.69
2022-07-28T11:30:19.829Z,97006.66
2022-07-28T11:32:55.898Z,97001.84
2022-07-28T11:35:27.534Z,96999.13
2022-07-28T11:38:03.863Z,96993.47
2022-07-28T11:40:32.386Z,97000.19
2022-07-28T11:43:36.245Z,97003.69
2022-07-28T11:46:11.403Z,97005.97
2022-07-28T11:48:40.860Z,97007.38
2022-07-28T11:51:07.842Z,96994.34
2022-07-28T11:53:38.948Z,97004.22
2022-07-28T11:56:09.543Z,96995.56
2022-07-28T11:58:37.990Z,97006.78
2022-07-28T12:01:32.454Z,96997.94
2022-07-28T12:04:15.444Z,97002.63
2022-07-28T12:06:51.224Z,97006.06
2022-07-28T12:09:41.322Z,96994.09
2022-07-28T12:12:13.024Z,96992.22
2022-07-28T12:14:41.151Z,96993.47
2022-07-28T12:17:08.508Z,96997.38
2022-07-28T12:19:35.887Z,96986.94
2022-07-28T12:22:15.548Z,96988.34
2022-07-28T12:24:44.910Z,96988.75
2022-07-28T12:27:14.756Z,96990.56
2022-07-28T12:29:42.873Z,96983.38
2022-07-28T12:32:10.484Z,96976.78
2022-07-28T12:34:40.477Z,96975.13
2022-07-28T12:37:12.685Z,96973.38
2022-07-28T12:39:42.934Z,96979.94
2022-07-28T12:42:12.632Z,96974.69
2022-07-28T12:44:41.930Z,96969.28
2022-07-28T12:47:13.015Z,96966.34
2022-07-28T12:49:42.933Z,96966.13
2022-07-28T12:52:22.089Z,96963.47
2022-07-28T12:54:55.888Z,96960.81
2022-07-28T12:57:51.626Z,96960.63
2022-07-28T13:00:37.167Z,96962.44
2022-07-28T13:03:26.343Z,96955.41
2022-07-28T13:06:04.240Z,96954.34
2022-07-28T13:08:44.646Z,96953.84
2022-07-28T13:11:42.112Z,96959.41
2022-07-28T13:14:01.219Z,96956.59
2022-07-28T13:16:30.080Z,96970.38
2022-07-28T13:18:59.728Z,96969.34
2022-07-28T13:21:58.151Z,96978.41
2022-07-28T13:24:28.434Z,96978.53
2022-07-28T13:26:56.947Z,96977.72
2022-07-28T13:29:24.860Z,96976.72
2022-07-28T13:31:55.060Z,96970.75
2022-07-28T13:34:22.575Z,96967.78
2022-07-28T13:36:49.903Z,96972.94
2022-07-28T13:39:17.129Z,96975.22
2022-07-28T13:41:57.812Z,96976.91
2022-07-28T13:44:27.853Z,96979.72
2022-07-28T13:46:56.529Z,96980.31
2022-07-28T13:49:24.436Z,96992.41
2022-07-28T13:51:51.679Z,97004.94
2022-07-28T13:54:19.751Z,97008.56
2022-07-28T13:57:12.026Z,97031.72
2022-07-28T13:59:40.164Z,97011.66
2022-07-28T14:02:15.434Z,97023.66
2022-07-28T14:04:45.677Z,97010.09
2022-07-28T14:07:13.312Z,97004.97
2022-07-28T14:09:48.301Z,97009.06
2022-07-28T14:12:15.549Z,97003.59
2022-07-28T14:14:47.920Z,97005.78
2022-07-28T14:17:44.427Z,97017.22
2022-07-28T14:20:05.062Z,97027.00
2022-07-28T14:22:32.212Z,97018.84
2022-07-28T14:24:59.580Z,97022.09
2022-07-28T14:27:29.227Z,97028.28
2022-07-28T14:29:57.297Z,97044.56
2022-07-28T14:32:27.458Z,97048.00
2022-07-28T14:34:54.738Z,97056.03
2022-07-28T14:37:21.617Z,97069.16
2022-07-28T14:39:48.841Z,97082.22
2022-07-28T14:42:15.983Z,97095.47
2022-07-28T14:44:43.422Z,97114.25
2022-07-28T14:47:10.559Z,97131.09
2022-07-28T14:49:38.505Z,97145.16
2022-07-28T14:52:27.976Z,97164.88
2022-07-28T14:54:55.555Z,97182.41
2022-07-28T14:57:24.493Z,97197.16
2022-07-28T15:01:09.769Z,97218.66
2022-07-28T15:03:37.766Z,97228.56
2022-07-28T15:06:10.422Z,97229.94
2022-07-28T15:08:38.389Z,97225.47
2022-07-28T15:11:23.981Z,97219.56
2022-07-28T15:13:51.149Z,97205.38
2022-07-28T15:16:19.220Z,97198.44
2022-07-28T15:18:46.696Z,97194.88
2022-07-28T15:21:16.935Z,97210.22
2022-07-28T15:23:44.664Z,97206.25
2022-07-28T15:26:14.695Z,97199.41
2022-07-28T15:28:41.819Z,97169.84
2022-07-28T15:31:09.058Z,97149.34
2022-07-28T15:33:45.473Z,97133.13
2022-07-28T15:36:17.742Z,97104.03
2022-07-28T15:38:49.277Z,97094.63
2022-07-28T15:41:19.337Z,97108.78
2022-07-28T15:43:46.738Z,97104.34
2022-07-28T15:46:14.802Z,97098.28
2022-07-28T15:48:44.094Z,97071.00
2022-07-28T15:51:11.849Z,97060.94
2022-07-28T15:53:39.323Z,97064.88
2022-07-28T15:56:06.275Z,97049.41
2022-07-28T15:58:34.038Z,97051.03
2022-07-28T16:01:02.069Z,97041.91
2022-07-28T16:03:30.417Z,97042.66
2022-07-28T16:05:59.070Z,97032.38
2022-07-28T16:08:27.195Z,97040.56
2022-07-28T16:10:55.020Z,97023.56
2022-07-28T16:13:35.676Z,97028.34
2022-07-28T16:16:16.656Z,97027.00
2022-07-28T16:18:44.441Z,97054.31
2022-07-28T16:21:11.977Z,97053.03
2022-07-28T16:23:39.066Z,97062.69
2022-07-28T16:26:10.266Z,97065.41
2022-07-28T16:28:37.616Z,97079.53
2022-07-28T16:31:06.618Z,97088.94
2022-07-28T16:33:34.117Z,97100.91
2022-07-28T16:36:04.168Z,97127.19
2022-07-28T16:38:31.289Z,97126.34
2022-07-28T16:40:58.653Z,97138.22
2022-07-28T16:43:25.693Z,97154.31
2022-07-28T16:45:52.949Z,97167.75
2022-07-28T16:48:20.973Z,97175.06
2022-07-28T16:50:49.844Z,97171.19
2022-07-28T16:53:17.208Z,97173.13
2022-07-28T16:55:45.055Z,97164.38
2022-07-28T16:58:12.272Z,97168.88
2022-07-28T17:00:39.443Z,97177.03
2022-07-28T17:03:14.184Z,97189.41
2022-07-28T17:05:41.360Z,97189.38
2022-07-28T17:08:09.569Z,97183.47
2022-07-28T17:10:36.724Z,97204.97
2022-07-28T17:13:05.782Z,97208.41
2022-07-28T17:15:36.013Z,97208.84
2022-07-28T17:18:03.441Z,97218.38
2022-07-28T17:20:30.922Z,97221.75
2022-07-28T17:23:00.178Z,97218.50
2022-07-28T17:26:20.416Z,97218.19
2022-07-28T17:28:17.946Z,97220.38
2022-07-28T17:30:45.039Z,97210.78
2022-07-28T17:33:15.977Z,97211.75
2022-07-28T17:36:09.117Z,97221.28
2022-07-28T17:38:36.681Z,97220.22
2022-07-28T17:41:04.536Z,97223.53
2022-07-28T17:43:32.617Z,97210.13
2022-07-28T17:46:00.899Z,97210.13
2022-07-28T17:48:28.748Z,97212.41
2022-07-28T17:50:55.894Z,97211.00
2022-07-28T17:53:24.507Z,97214.47
2022-07-28T17:56:01.272Z,97216.97
2022-07-28T17:58:34.471Z,97222.13
2022-07-28T18:01:23.657Z,97216.66
2022-07-28T18:03:57.692Z,97215.06
2022-07-28T18:06:34.845Z,97226.22
2022-07-28T18:09:08.725Z,97234.53
2022-07-28T18:11:56.076Z,97235.88
2022-07-28T18:14:30.210Z,97247.00
2022-07-28T18:19:45.646Z,97256.94
2022-07-28T18:22:13.502Z,97254.25
2022-07-28T18:24:40.765Z,97244.16
2022-07-28T18:27:07.959Z,97239.00
2022-07-28T18:29:38.436Z,97248.72
2022-07-28T18:32:09.608Z,97244.34
2022-07-28T18:34:37.215Z,97242.53
2022-07-28T18:37:05.134Z,97240.44
2022-07-28T18:39:32.221Z,97240.28
2022-07-28T18:41:59.304Z,97235.09
2022-07-28T18:44:28.665Z,97244.34
2022-07-28T18:46:58.114Z,97241.91
2022-07-28T18:49:25.358Z,97245.16
2022-07-28T18:51:53.706Z,97243.75
2022-07-28T18:54:27.438Z,97245.38
2022-07-28T18:56:55.809Z,97236.31
2022-07-28T18:59:23.081Z,97236.56
2022-07-28T19:01:50.401Z,97243.78
2022-07-28T19:04:18.101Z,97235.75
2022-07-28T19:06:45.554Z,97225.84
2022-07-28T19:09:12.755Z,97235.97
2022-07-28T19:11:45.347Z,97236.41
2022-07-28T19:14:14.088Z,97237.66
2022-07-28T19:16:41.850Z,97245.09
2022-07-28T19:19:11.657Z,97250.84
2022-07-28T19:21:42.907Z,97243.88
2022-07-28T19:24:11.760Z,97244.88
2022-07-28T19:26:39.394Z,97244.06
2022-07-28T19:29:06.873Z,97237.88
2022-07-28T19:31:34.342Z,97232.34
2022-07-28T19:34:01.696Z,97242.25
2022-07-28T19:36:29.118Z,97234.03
2022-07-28T19:39:03.676Z,97231.75
2022-07-28T19:41:32.038Z,97216.09
2022-07-28T19:43:59.332Z,97219.19
2022-07-28T19:46:26.648Z,97214.00
2022-07-28T19:48:54.581Z,97211.34
2022-07-28T19:51:22.468Z,97216.06
2022-07-28T19:53:54.963Z,97217.31
2022-07-28T19:56:30.528Z,97224.53
2022-07-28T19:59:02.598Z,97226.78
2022-07-28T20:01:29.880Z,97228.25
2022-07-28T20:04:00.879Z,97216.50
2022-07-28T20:06:33.317Z,97223.09
2022-07-28T20:09:02.015Z,97215.47
2022-07-28T20:11:29.330Z,97214.44
2022-07-28T20:14:05.478Z,97226.56
2022-07-28T20:16:36.010Z,97218.31
2022-07-28T20:19:03.338Z,97222.44
2022-07-28T20:21:38.424Z,97220.38
2022-07-28T20:24:07.047Z,97227.38
2022-07-28T20:26:34.107Z,97233.53
2022-07-28T20:29:08.932Z,97222.63
2022-07-28T20:31:37.144Z,97224.47
2022-07-28T20:34:07.611Z,97231.41
2022-07-28T20:36:35.541Z,97226.94
2022-07-28T20:39:15.767Z,97220.75
2022-07-28T20:41:50.296Z,97223.03
2022-07-28T20:44:28.872Z,97225.28
2022-07-28T20:47:04.549Z,97233.44
2022-07-28T20:49:32.139Z,97245.59
2022-07-28T20:51:59.773Z,97245.41
2022-07-28T20:54:28.555Z,97243.78
2022-07-28T20:56:56.412Z,97240.25
2022-07-28T20:59:27.791Z,97237.16
2022-07-28T21:01:55.548Z,97244.78
2022-07-28T21:04:24.574Z,97249.88
2022-07-28T21:06:55.359Z,97246.97
2022-07-28T21:09:34.798Z,97244.06
2022-07-28T21:12:04.014Z,97245.25
2022-07-28T21:14:34.006Z,97243.19
2022-07-28T21:17:02.993Z,97242.34
2022-07-28T21:19:30.713Z,97251.41
2022-07-28T21:21:57.693Z,97256.50
2022-07-28T21:24:24.959Z,97255.50
2022-07-28T21:26:53.729Z,97264.97
2022-07-28T21:32:04.771Z,97282.13
2022-07-28T21:34:35.101Z,97284.41
2022-07-28T21:37:07.037Z,97281.75
2022-07-28T21:39:35.358Z,97275.16
2022-07-28T21:42:09.325Z,97277.00
2022-07-28T21:44:38.230Z,97274.72
2022-07-28T21:47:05.533Z,97281.09
2022-07-28T21:49:35.974Z,97278.81
2022-07-28T21:52:06.304Z,97277.94
2022-07-28T21:54:36.578Z,97290.22
2022-07-28T21:57:04.123Z,97291.91
2022-07-28T21:59:49.741Z,97283.47
2022-07-28T22:02:17.193Z,97289.81
2022-07-28T22:04:44.688Z,97291.72
2022-07-28T22:07:12.428Z,97296.63
2022-07-28T22:09:42.831Z,97288.56
2022-07-28T22:12:13.517Z,97285.91
2022-07-28T22:14:43.951Z,97281.94
2022-07-28T22:17:11.474Z,97295.47
2022-07-28T22:19:40.761Z,97287.81
2022-07-28T22:22:08.093Z,97292.47
2022-07-28T22:24:38.153Z,97295.38
2022-07-28T22:27:06.017Z,97293.28
2022-07-28T22:29:33.832Z,97289.19
2022-07-28T22:34:57.937Z,97296.25
2022-07-28T22:37:25.278Z,97301.34
2022-07-28T22:42:33.638Z,97301.78
2022-07-28T22:45:01.355Z,97298.59
2022-07-28T22:47:28.400Z,97300.94
2022-07-28T22:49:56.465Z,97295.88
2022-07-28T22:52:30.421Z,97293.72
2022-07-28T22:54:58.016Z,97288.94
2022-07-28T22:57:26.429Z,97285.31
2022-07-28T22:59:56.517Z,97279.88
2022-07-28T23:02:26.356Z,97279.03
2022-07-28T23:04:53.950Z,97274.53
2022-07-28T23:07:51.443Z,97273.41
2022-07-28T23:10:12.341Z,97273.50
2022-07-28T23:12:42.428Z,97268.16
2022-07-28T23:15:09.987Z,97269.06
2022-07-28T23:17:37.187Z,97259.94
2022-07-28T23:20:08.356Z,97262.38
2022-07-28T23:22:35.508Z,97270.22
2022-07-28T23:25:04.318Z,97269.25
2022-07-28T23:27:32.130Z,97262.47
2022-07-28T23:30:01.814Z,97265.25
2022-07-28T23:32:29.304Z,97270.22
2022-07-28T23:35:00.040Z,97268.75
2022-07-28T23:37:27.741Z,97265.25
2022-07-28T23:39:59.964Z,97268.97
2022-07-28T23:42:28.541Z,97259.69
2022-07-28T23:44:55.681Z,97263.63
2022-07-28T23:47:22.877Z,97267.28
2022-07-28T23:49:50.025Z,97263.88
2022-07-28T23:52:17.317Z,97260.94
2022-07-28T23:54:44.621Z,97273.06
2022-07-28T23:57:11.804Z,97268.97
2022-07-28T23:59:39.056Z,97269.34
